INFORMACIÓN METAR y TAF
METAR FOR UTDD
ADDS - METARS form results

(0155 UTC 25 June 2022)
Data provider http://aviationweather.gov/metar/data/
 
METAR text: UTDD 250130Z 06003MPS 9999 NSC 24/10 Q1009 R09/D NOSIG RMK QFE689/0918
Conditions at: UTDD (DUSHANBE , TJ) observed 0130 UTC 25 June 2022
Temperature: 24.0°C (75°F)
Dewpoint: 10.0°C (50°F) [RH = 41%]
Pressure (altimeter): 29.79 inches Hg (1009.0 mb)
Winds: from the ENE (60 degrees) at 7 MPH (6 knots; 3.1 m/s)
Visibility: 6 or more miles (10+ km)
Ceiling: at least 12,000 feet AGL
Clouds: sky clear below 12,000 feet AGL
Weather: no significant weather observed at this time

METAR text: UTDD 250100Z VRB02MPS 9999 NSC 22/11 Q1008 R09/D NOSIG RMK QFE688/0918
Conditions at: UTDD (DUSHANBE , TJ) observed 0100 UTC 25 June 2022
Temperature: 22.0°C (72°F)
Dewpoint: 11.0°C (52°F) [RH = 50%]
Pressure (altimeter): 29.76 inches Hg (1008.0 mb)
Winds: variable direction winds at 5 MPH (4 knots; 2.1 m/s)
Visibility: 6 or more miles (10+ km)
Ceiling: at least 12,000 feet AGL
Clouds: sky clear below 12,000 feet AGL
Weather: no significant weather observed at this time

Forecast for: UTDD (DUSHANBE , TJ)
Text: TAF UTDD 250000Z 2501/2513 VRB02MPS 9999 FEW066 SCT100
Forecast period: 0100 to 1300 UTC 25 June 2022
Forecast type: FROM: standard forecast or significant change
Winds: variable direction winds at 5 MPH (4 knots; 2.1 m/s)
Visibility: 6 or more miles (10+ km)
Ceiling: at least 12,000 feet AGL
Clouds: few clouds at 6600 feet AGL
scattered clouds at 10000 feet AGL
Weather: no significant weather forecast for this period

 MAPA DE AEROPUERTO

 INFORMACIÓN DE PISTA